sensor_id;sensor_type;location;lat;lon;timestamp;P1;durP1;ratioP1;P2;durP2;ratioP2
20040;SDS011;10181;48.072;9.884;2022-10-16T00:01:24;6.73;;;6.43;;
20040;SDS011;10181;48.072;9.884;2022-10-16T00:03:52;5.47;;;5.27;;
20040;SDS011;10181;48.072;9.884;2022-10-16T00:06:19;6.13;;;5.90;;
20040;SDS011;10181;48.072;9.884;2022-10-16T00:08:46;5.23;;;5.03;;
20040;SDS011;10181;48.072;9.884;2022-10-16T00:11:14;6.10;;;5.90;;
20040;SDS011;10181;48.072;9.884;2022-10-16T00:13:48;5.37;;;5.17;;
20040;SDS011;10181;48.072;9.884;2022-10-16T00:16:16;6.43;;;6.13;;
20040;SDS011;10181;48.072;9.884;2022-10-16T00:18:42;8.60;;;8.10;;
20040;SDS011;10181;48.072;9.884;2022-10-16T00:21:09;17.63;;;16.90;;
20040;SDS011;10181;48.072;9.884;2022-10-16T00:23:37;24.27;;;23.30;;
20040;SDS011;10181;48.072;9.884;2022-10-16T00:26:04;23.50;;;22.63;;
20040;SDS011;10181;48.072;9.884;2022-10-16T00:28:32;26.70;;;25.37;;
20040;SDS011;10181;48.072;9.884;2022-10-16T00:30:58;20.43;;;19.57;;
20040;SDS011;10181;48.072;9.884;2022-10-16T00:33:24;22.60;;;21.70;;
20040;SDS011;10181;48.072;9.884;2022-10-16T00:35:50;22.23;;;21.27;;
20040;SDS011;10181;48.072;9.884;2022-10-16T00:38:16;20.03;;;19.20;;
20040;SDS011;10181;48.072;9.884;2022-10-16T00:40:42;18.93;;;17.83;;
20040;SDS011;10181;48.072;9.884;2022-10-16T00:43:54;18.97;;;18.27;;
20040;SDS011;10181;48.072;9.884;2022-10-16T00:46:04;19.33;;;18.57;;
20040;SDS011;10181;48.072;9.884;2022-10-16T00:48:35;13.33;;;12.80;;
20040;SDS011;10181;48.072;9.884;2022-10-16T00:51:02;11.53;;;10.90;;
20040;SDS011;10181;48.072;9.884;2022-10-16T00:53:29;6.87;;;6.60;;
20040;SDS011;10181;48.072;9.884;2022-10-16T00:55:55;5.07;;;4.87;;
20040;SDS011;10181;48.072;9.884;2022-10-16T00:58:21;5.17;;;4.97;;
20040;SDS011;10181;48.072;9.884;2022-10-16T01:00:46;5.70;;;5.47;;
20040;SDS011;10181;48.072;9.884;2022-10-16T01:03:26;5.83;;;5.63;;
20040;SDS011;10181;48.072;9.884;2022-10-16T01:06:10;5.57;;;5.37;;
20040;SDS011;10181;48.072;9.884;2022-10-16T01:11:34;5.40;;;5.20;;
20040;SDS011;10181;48.072;9.884;2022-10-16T01:14:23;5.90;;;5.70;;
20040;SDS011;10181;48.072;9.884;2022-10-16T01:20:03;6.00;;;5.80;;
20040;SDS011;10181;48.072;9.884;2022-10-16T01:22:34;5.73;;;5.53;;
20040;SDS011;10181;48.072;9.884;2022-10-16T01:25:08;5.53;;;5.33;;
20040;SDS011;10181;48.072;9.884;2022-10-16T01:27:39;6.40;;;6.10;;
20040;SDS011;10181;48.072;9.884;2022-10-16T01:30:12;5.53;;;5.33;;
20040;SDS011;10181;48.072;9.884;2022-10-16T01:33:01;6.90;;;6.63;;
20040;SDS011;10181;48.072;9.884;2022-10-16T01:35:36;12.93;;;12.23;;
20040;SDS011;10181;48.072;9.884;2022-10-16T01:38:08;30.13;;;28.93;;
20040;SDS011;10181;48.072;9.884;2022-10-16T01:40:52;53.63;;;51.50;;
20040;SDS011;10181;48.072;9.884;2022-10-16T01:43:25;158.90;;;152.60;;
20040;SDS011;10181;48.072;9.884;2022-10-16T01:45:56;271.07;;;260.87;;
20040;SDS011;10181;48.072;9.884;2022-10-16T01:48:23;212.27;;;204.07;;
20040;SDS011;10181;48.072;9.884;2022-10-16T01:50:57;79.80;;;76.57;;
20040;SDS011;10181;48.072;9.884;2022-10-16T01:53:29;39.37;;;37.73;;
20040;SDS011;10181;48.072;9.884;2022-10-16T01:55:56;38.67;;;37.23;;
20040;SDS011;10181;48.072;9.884;2022-10-16T01:58:23;50.87;;;48.97;;
20040;SDS011;10181;48.072;9.884;2022-10-16T02:00:51;58.27;;;56.07;;
20040;SDS011;10181;48.072;9.884;2022-10-16T02:03:19;55.47;;;53.33;;
20040;SDS011;10181;48.072;9.884;2022-10-16T02:05:47;50.17;;;48.20;;
20040;SDS011;10181;48.072;9.884;2022-10-16T02:08:17;40.10;;;38.63;;
20040;SDS011;10181;48.072;9.884;2022-10-16T02:10:44;27.47;;;26.47;;
20040;SDS011;10181;48.072;9.884;2022-10-16T02:13:11;31.97;;;30.77;;
20040;SDS011;10181;48.072;9.884;2022-10-16T02:15:39;36.87;;;35.43;;
20040;SDS011;10181;48.072;9.884;2022-10-16T02:18:05;43.13;;;41.47;;
20040;SDS011;10181;48.072;9.884;2022-10-16T02:20:34;53.00;;;50.93;;
20040;SDS011;10181;48.072;9.884;2022-10-16T02:23:05;62.03;;;59.63;;
20040;SDS011;10181;48.072;9.884;2022-10-16T02:25:37;87.70;;;84.20;;
20040;SDS011;10181;48.072;9.884;2022-10-16T02:28:07;106.43;;;102.40;;
20040;SDS011;10181;48.072;9.884;2022-10-16T02:33:07;96.83;;;93.10;;
20040;SDS011;10181;48.072;9.884;2022-10-16T02:35:34;83.63;;;80.47;;
20040;SDS011;10181;48.072;9.884;2022-10-16T02:38:01;70.07;;;67.40;;
20040;SDS011;10181;48.072;9.884;2022-10-16T02:40:28;44.27;;;42.40;;
20040;SDS011;10181;48.072;9.884;2022-10-16T02:42:54;13.63;;;13.23;;
20040;SDS011;10181;48.072;9.884;2022-10-16T02:45:21;11.57;;;11.27;;
20040;SDS011;10181;48.072;9.884;2022-10-16T02:47:47;6.37;;;6.17;;
20040;SDS011;10181;48.072;9.884;2022-10-16T02:50:13;7.23;;;6.93;;
20040;SDS011;10181;48.072;9.884;2022-10-16T02:52:39;7.27;;;7.07;;
20040;SDS011;10181;48.072;9.884;2022-10-16T02:55:04;6.27;;;6.07;;
20040;SDS011;10181;48.072;9.884;2022-10-16T02:57:30;6.07;;;5.97;;
20040;SDS011;10181;48.072;9.884;2022-10-16T02:59:56;6.23;;;6.00;;
20040;SDS011;10181;48.072;9.884;2022-10-16T03:02:22;6.47;;;6.07;;
20040;SDS011;10181;48.072;9.884;2022-10-16T03:04:48;5.00;;;4.80;;
20040;SDS011;10181;48.072;9.884;2022-10-16T03:07:13;2.60;;;2.50;;
20040;SDS011;10181;48.072;9.884;2022-10-16T03:09:39;2.20;;;2.10;;
20040;SDS011;10181;48.072;9.884;2022-10-16T03:12:05;1.80;;;1.80;;
20040;SDS011;10181;48.072;9.884;2022-10-16T03:14:30;2.63;;;2.53;;
20040;SDS011;10181;48.072;9.884;2022-10-16T03:16:56;2.40;;;2.30;;
20040;SDS011;10181;48.072;9.884;2022-10-16T03:19:22;3.70;;;3.57;;
20040;SDS011;10181;48.072;9.884;2022-10-16T03:21:47;5.07;;;4.87;;
20040;SDS011;10181;48.072;9.884;2022-10-16T03:24:13;6.50;;;6.10;;
20040;SDS011;10181;48.072;9.884;2022-10-16T03:26:39;7.40;;;7.00;;
20040;SDS011;10181;48.072;9.884;2022-10-16T03:29:04;7.57;;;7.20;;
20040;SDS011;10181;48.072;9.884;2022-10-16T03:31:31;9.37;;;7.37;;
20040;SDS011;10181;48.072;9.884;2022-10-16T03:33:57;7.93;;;6.57;;
20040;SDS011;10181;48.072;9.884;2022-10-16T03:36:23;8.00;;;7.27;;
20040;SDS011;10181;48.072;9.884;2022-10-16T03:38:48;9.63;;;9.00;;
20040;SDS011;10181;48.072;9.884;2022-10-16T03:41:14;19.07;;;18.20;;
20040;SDS011;10181;48.072;9.884;2022-10-16T03:43:39;37.43;;;35.23;;
20040;SDS011;10181;48.072;9.884;2022-10-16T03:46:05;53.97;;;51.77;;
20040;SDS011;10181;48.072;9.884;2022-10-16T03:48:31;71.93;;;69.07;;
20040;SDS011;10181;48.072;9.884;2022-10-16T03:50:57;87.47;;;84.00;;
20040;SDS011;10181;48.072;9.884;2022-10-16T03:53:23;89.23;;;85.90;;
20040;SDS011;10181;48.072;9.884;2022-10-16T03:55:48;66.40;;;63.33;;
20040;SDS011;10181;48.072;9.884;2022-10-16T03:58:14;46.17;;;43.90;;
20040;SDS011;10181;48.072;9.884;2022-10-16T04:00:41;33.17;;;31.63;;
20040;SDS011;10181;48.072;9.884;2022-10-16T04:03:10;30.97;;;29.60;;
20040;SDS011;10181;48.072;9.884;2022-10-16T04:05:36;36.40;;;34.77;;
20040;SDS011;10181;48.072;9.884;2022-10-16T04:08:02;40.67;;;39.17;;
20040;SDS011;10181;48.072;9.884;2022-10-16T04:10:27;53.47;;;51.00;;
20040;SDS011;10181;48.072;9.884;2022-10-16T04:12:53;55.43;;;52.87;;
20040;SDS011;10181;48.072;9.884;2022-10-16T04:15:20;55.20;;;51.80;;
20040;SDS011;10181;48.072;9.884;2022-10-16T04:17:49;47.53;;;45.43;;
20040;SDS011;10181;48.072;9.884;2022-10-16T04:20:15;39.70;;;38.03;;
20040;SDS011;10181;48.072;9.884;2022-10-16T04:22:41;39.23;;;37.73;;
20040;SDS011;10181;48.072;9.884;2022-10-16T04:25:07;63.73;;;61.23;;
20040;SDS011;10181;48.072;9.884;2022-10-16T04:27:33;103.63;;;99.43;;
20040;SDS011;10181;48.072;9.884;2022-10-16T04:29:59;150.10;;;144.23;;
20040;SDS011;10181;48.072;9.884;2022-10-16T04:32:25;154.30;;;148.37;;
20040;SDS011;10181;48.072;9.884;2022-10-16T04:34:51;163.37;;;156.87;;
20040;SDS011;10181;48.072;9.884;2022-10-16T04:37:17;95.10;;;91.17;;
20040;SDS011;10181;48.072;9.884;2022-10-16T04:39:43;80.90;;;77.63;;
20040;SDS011;10181;48.072;9.884;2022-10-16T04:42:10;121.23;;;116.43;;
20040;SDS011;10181;48.072;9.884;2022-10-16T04:44:36;179.07;;;172.03;;
20040;SDS011;10181;48.072;9.884;2022-10-16T04:47:01;194.00;;;185.87;;
20040;SDS011;10181;48.072;9.884;2022-10-16T04:49:27;208.33;;;200.20;;
20040;SDS011;10181;48.072;9.884;2022-10-16T04:51:53;218.73;;;210.30;;
20040;SDS011;10181;48.072;9.884;2022-10-16T04:54:18;219.27;;;210.87;;
20040;SDS011;10181;48.072;9.884;2022-10-16T04:56:44;231.27;;;222.67;;
20040;SDS011;10181;48.072;9.884;2022-10-16T04:59:13;233.30;;;224.57;;
20040;SDS011;10181;48.072;9.884;2022-10-16T05:01:39;222.50;;;214.10;;
20040;SDS011;10181;48.072;9.884;2022-10-16T05:04:05;231.03;;;222.43;;
20040;SDS011;10181;48.072;9.884;2022-10-16T05:06:30;223.83;;;214.77;;
20040;SDS011;10181;48.072;9.884;2022-10-16T05:08:56;214.43;;;205.47;;
20040;SDS011;10181;48.072;9.884;2022-10-16T05:11:22;178.17;;;170.83;;
20040;SDS011;10181;48.072;9.884;2022-10-16T05:13:47;183.07;;;175.30;;
20040;SDS011;10181;48.072;9.884;2022-10-16T05:16:13;185.13;;;178.00;;
20040;SDS011;10181;48.072;9.884;2022-10-16T05:18:38;179.77;;;172.87;;
20040;SDS011;10181;48.072;9.884;2022-10-16T05:21:04;149.83;;;144.00;;
20040;SDS011;10181;48.072;9.884;2022-10-16T05:23:30;107.07;;;101.80;;
20040;SDS011;10181;48.072;9.884;2022-10-16T05:25:57;75.13;;;71.83;;
20040;SDS011;10181;48.072;9.884;2022-10-16T05:28:24;59.57;;;56.87;;
20040;SDS011;10181;48.072;9.884;2022-10-16T05:30:51;43.93;;;42.20;;
20040;SDS011;10181;48.072;9.884;2022-10-16T05:33:17;50.60;;;48.53;;
20040;SDS011;10181;48.072;9.884;2022-10-16T05:35:46;26.27;;;25.23;;
20040;SDS011;10181;48.072;9.884;2022-10-16T05:38:12;14.53;;;14.00;;
20040;SDS011;10181;48.072;9.884;2022-10-16T05:40:38;9.20;;;8.80;;
20040;SDS011;10181;48.072;9.884;2022-10-16T05:43:04;8.70;;;7.93;;
20040;SDS011;10181;48.072;9.884;2022-10-16T05:45:30;11.10;;;7.37;;
20040;SDS011;10181;48.072;9.884;2022-10-16T05:47:55;7.77;;;7.27;;
20040;SDS011;10181;48.072;9.884;2022-10-16T05:50:21;7.40;;;7.00;;
20040;SDS011;10181;48.072;9.884;2022-10-16T05:52:46;8.83;;;8.00;;
20040;SDS011;10181;48.072;9.884;2022-10-16T05:55:12;7.60;;;7.17;;
20040;SDS011;10181;48.072;9.884;2022-10-16T05:57:38;6.40;;;6.07;;
20040;SDS011;10181;48.072;9.884;2022-10-16T06:00:04;7.50;;;7.00;;
20040;SDS011;10181;48.072;9.884;2022-10-16T06:02:30;6.80;;;6.40;;
20040;SDS011;10181;48.072;9.884;2022-10-16T06:04:55;6.60;;;6.27;;
20040;SDS011;10181;48.072;9.884;2022-10-16T06:07:21;6.73;;;6.33;;
20040;SDS011;10181;48.072;9.884;2022-10-16T06:09:51;6.00;;;5.70;;
20040;SDS011;10181;48.072;9.884;2022-10-16T06:12:17;9.13;;;8.43;;
20040;SDS011;10181;48.072;9.884;2022-10-16T06:14:44;7.73;;;7.23;;
20040;SDS011;10181;48.072;9.884;2022-10-16T06:17:12;7.20;;;6.70;;
20040;SDS011;10181;48.072;9.884;2022-10-16T06:19:38;6.20;;;5.90;;
20040;SDS011;10181;48.072;9.884;2022-10-16T06:22:04;6.07;;;5.77;;
20040;SDS011;10181;48.072;9.884;2022-10-16T06:24:30;6.33;;;6.03;;
20040;SDS011;10181;48.072;9.884;2022-10-16T06:26:55;5.97;;;5.70;;
20040;SDS011;10181;48.072;9.884;2022-10-16T06:29:21;5.63;;;5.40;;
20040;SDS011;10181;48.072;9.884;2022-10-16T06:31:47;5.53;;;5.33;;
20040;SDS011;10181;48.072;9.884;2022-10-16T06:34:12;5.40;;;5.20;;
20040;SDS011;10181;48.072;9.884;2022-10-16T06:36:38;6.03;;;5.77;;
20040;SDS011;10181;48.072;9.884;2022-10-16T06:39:04;5.40;;;5.20;;
20040;SDS011;10181;48.072;9.884;2022-10-16T06:41:32;5.77;;;5.57;;
20040;SDS011;10181;48.072;9.884;2022-10-16T06:43:58;5.40;;;5.20;;
20040;SDS011;10181;48.072;9.884;2022-10-16T06:46:25;5.47;;;5.27;;
20040;SDS011;10181;48.072;9.884;2022-10-16T06:48:51;6.70;;;6.40;;
20040;SDS011;10181;48.072;9.884;2022-10-16T06:51:18;5.97;;;5.70;;
20040;SDS011;10181;48.072;9.884;2022-10-16T06:53:53;5.70;;;5.40;;
20040;SDS011;10181;48.072;9.884;2022-10-16T06:56:22;6.17;;;5.83;;
20040;SDS011;10181;48.072;9.884;2022-10-16T06:58:53;5.70;;;5.50;;
20040;SDS011;10181;48.072;9.884;2022-10-16T07:01:19;5.73;;;5.53;;
20040;SDS011;10181;48.072;9.884;2022-10-16T07:03:47;6.40;;;6.10;;
20040;SDS011;10181;48.072;9.884;2022-10-16T07:06:14;6.03;;;5.83;;
20040;SDS011;10181;48.072;9.884;2022-10-16T07:08:41;6.40;;;6.20;;
20040;SDS011;10181;48.072;9.884;2022-10-16T07:11:10;7.97;;;7.67;;
20040;SDS011;10181;48.072;9.884;2022-10-16T07:13:38;11.83;;;11.43;;
20040;SDS011;10181;48.072;9.884;2022-10-16T07:16:09;17.47;;;16.77;;
20040;SDS011;10181;48.072;9.884;2022-10-16T07:18:36;28.57;;;27.40;;
20040;SDS011;10181;48.072;9.884;2022-10-16T07:21:07;56.17;;;53.93;;
20040;SDS011;10181;48.072;9.884;2022-10-16T07:23:44;81.13;;;77.77;;
20040;SDS011;10181;48.072;9.884;2022-10-16T07:26:10;134.73;;;129.43;;
20040;SDS011;10181;48.072;9.884;2022-10-16T07:28:36;238.10;;;229.10;;
20040;SDS011;10181;48.072;9.884;2022-10-16T07:31:04;253.73;;;244.10;;
20040;SDS011;10181;48.072;9.884;2022-10-16T07:33:33;182.93;;;175.87;;
20040;SDS011;10181;48.072;9.884;2022-10-16T07:36:00;72.50;;;69.37;;
20040;SDS011;10181;48.072;9.884;2022-10-16T07:38:26;40.57;;;39.07;;
20040;SDS011;10181;48.072;9.884;2022-10-16T07:40:58;66.27;;;63.73;;
20040;SDS011;10181;48.072;9.884;2022-10-16T07:43:25;38.57;;;37.17;;
20040;SDS011;10181;48.072;9.884;2022-10-16T07:45:51;57.57;;;55.27;;
20040;SDS011;10181;48.072;9.884;2022-10-16T07:48:17;109.60;;;105.40;;
20040;SDS011;10181;48.072;9.884;2022-10-16T07:50:43;28.80;;;27.77;;
20040;SDS011;10181;48.072;9.884;2022-10-16T07:53:13;6.77;;;6.53;;
20040;SDS011;10181;48.072;9.884;2022-10-16T07:55:40;4.50;;;4.20;;
20040;SDS011;10181;48.072;9.884;2022-10-16T07:58:07;2.10;;;2.00;;
20040;SDS011;10181;48.072;9.884;2022-10-16T08:00:33;1.90;;;1.90;;
20040;SDS011;10181;48.072;9.884;2022-10-16T08:02:59;9.33;;;9.03;;
20040;SDS011;10181;48.072;9.884;2022-10-16T08:05:28;13.30;;;12.80;;
20040;SDS011;10181;48.072;9.884;2022-10-16T08:07:55;3.00;;;2.90;;
20040;SDS011;10181;48.072;9.884;2022-10-16T08:10:22;5.70;;;5.50;;
20040;SDS011;10181;48.072;9.884;2022-10-16T08:12:49;8.63;;;8.33;;
20040;SDS011;10181;48.072;9.884;2022-10-16T08:15:16;7.47;;;7.20;;
20040;SDS011;10181;48.072;9.884;2022-10-16T08:17:42;67.40;;;64.80;;
20040;SDS011;10181;48.072;9.884;2022-10-16T08:20:08;82.93;;;79.57;;
20040;SDS011;10181;48.072;9.884;2022-10-16T08:22:34;46.93;;;45.20;;
20040;SDS011;10181;48.072;9.884;2022-10-16T08:24:59;53.83;;;51.83;;
20040;SDS011;10181;48.072;9.884;2022-10-16T08:27:30;49.40;;;47.57;;
20040;SDS011;10181;48.072;9.884;2022-10-16T08:29:59;28.17;;;27.20;;
20040;SDS011;10181;48.072;9.884;2022-10-16T08:32:24;17.13;;;16.43;;
20040;SDS011;10181;48.072;9.884;2022-10-16T08:34:50;7.07;;;6.87;;
20040;SDS011;10181;48.072;9.884;2022-10-16T08:37:15;5.10;;;5.00;;
20040;SDS011;10181;48.072;9.884;2022-10-16T08:39:41;5.07;;;4.97;;
20040;SDS011;10181;48.072;9.884;2022-10-16T08:42:19;3.97;;;3.87;;
20040;SDS011;10181;48.072;9.884;2022-10-16T08:45:01;4.90;;;4.80;;
20040;SDS011;10181;48.072;9.884;2022-10-16T08:47:51;5.37;;;5.27;;
20040;SDS011;10181;48.072;9.884;2022-10-16T08:50:24;4.30;;;4.20;;
20040;SDS011;10181;48.072;9.884;2022-10-16T08:52:55;3.93;;;3.83;;
20040;SDS011;10181;48.072;9.884;2022-10-16T08:58:10;5.13;;;5.03;;
20040;SDS011;10181;48.072;9.884;2022-10-16T09:00:41;5.17;;;5.03;;
20040;SDS011;10181;48.072;9.884;2022-10-16T09:06:00;4.73;;;4.63;;
20040;SDS011;10181;48.072;9.884;2022-10-16T09:20:13;5.60;;;5.47;;
20040;SDS011;10181;48.072;9.884;2022-10-16T09:22:42;3.27;;;3.17;;
20040;SDS011;10181;48.072;9.884;2022-10-16T09:25:14;3.08;;;2.97;;
20040;SDS011;10181;48.072;9.884;2022-10-16T09:27:47;11.77;;;11.47;;
20040;SDS011;10181;48.072;9.884;2022-10-16T09:30:15;6.17;;;5.97;;
20040;SDS011;10181;48.072;9.884;2022-10-16T09:32:43;6.00;;;5.87;;
20040;SDS011;10181;48.072;9.884;2022-10-16T09:35:17;3.50;;;3.40;;
20040;SDS011;10181;48.072;9.884;2022-10-16T09:37:58;4.20;;;4.10;;
20040;SDS011;10181;48.072;9.884;2022-10-16T09:40:30;3.37;;;3.27;;
20040;SDS011;10181;48.072;9.884;2022-10-16T09:46:01;7.90;;;7.70;;
20040;SDS011;10181;48.072;9.884;2022-10-16T09:48:47;5.40;;;5.20;;
20040;SDS011;10181;48.072;9.884;2022-10-16T09:51:19;6.88;;;6.68;;
20040;SDS011;10181;48.072;9.884;2022-10-16T09:53:54;4.78;;;4.68;;
20040;SDS011;10181;48.072;9.884;2022-10-16T09:56:40;2.58;;;2.58;;
20040;SDS011;10181;48.072;9.884;2022-10-16T09:59:11;2.03;;;1.92;;
20040;SDS011;10181;48.072;9.884;2022-10-16T10:01:44;4.03;;;3.92;;
20040;SDS011;10181;48.072;9.884;2022-10-16T10:04:12;2.85;;;2.75;;
20040;SDS011;10181;48.072;9.884;2022-10-16T10:06:51;2.22;;;2.22;;
20040;SDS011;10181;48.072;9.884;2022-10-16T10:12:19;3.88;;;3.78;;
20040;SDS011;10181;48.072;9.884;2022-10-16T10:15:33;4.82;;;4.72;;
20040;SDS011;10181;48.072;9.884;2022-10-16T10:20:24;9.38;;;8.80;;
20040;SDS011;10181;48.072;9.884;2022-10-16T10:22:51;13.75;;;13.35;;
20040;SDS011;10181;48.072;9.884;2022-10-16T10:36:38;17.50;;;16.83;;
20040;SDS011;10181;48.072;9.884;2022-10-16T10:42:00;6.35;;;6.15;;
20040;SDS011;10181;48.072;9.884;2022-10-16T10:49:46;4.55;;;4.35;;
20040;SDS011;10181;48.072;9.884;2022-10-16T10:55:09;5.30;;;5.10;;
20040;SDS011;10181;48.072;9.884;2022-10-16T11:06:11;16.55;;;15.95;;
20040;SDS011;10181;48.072;9.884;2022-10-16T11:08:46;31.58;;;30.50;;
20040;SDS011;10181;48.072;9.884;2022-10-16T11:11:23;42.17;;;40.65;;
20040;SDS011;10181;48.072;9.884;2022-10-16T11:16:38;17.27;;;16.60;;
20040;SDS011;10181;48.072;9.884;2022-10-16T11:22:12;32.05;;;31.00;;
20040;SDS011;10181;48.072;9.884;2022-10-16T11:25:27;12.60;;;12.20;;
20040;SDS011;10181;48.072;9.884;2022-10-16T11:27:56;13.35;;;12.75;;
20040;SDS011;10181;48.072;9.884;2022-10-16T11:30:23;13.27;;;12.88;;
20040;SDS011;10181;48.072;9.884;2022-10-16T11:38:20;6.93;;;6.63;;
20040;SDS011;10181;48.072;9.884;2022-10-16T11:40:56;15.77;;;15.15;;
20040;SDS011;10181;48.072;9.884;2022-10-16T11:43:45;65.40;;;62.92;;
20040;SDS011;10181;48.072;9.884;2022-10-16T11:46:23;176.38;;;169.75;;
20040;SDS011;10181;48.072;9.884;2022-10-16T11:48:54;92.40;;;88.85;;
20040;SDS011;10181;48.072;9.884;2022-10-16T11:51:33;75.00;;;72.25;;
20040;SDS011;10181;48.072;9.884;2022-10-16T11:56:46;48.35;;;46.42;;
20040;SDS011;10181;48.072;9.884;2022-10-16T11:59:27;30.05;;;29.00;;
20040;SDS011;10181;48.072;9.884;2022-10-16T12:07:11;21.42;;;20.58;;
20040;SDS011;10181;48.072;9.884;2022-10-16T12:09:46;19.65;;;19.00;;
20040;SDS011;10181;48.072;9.884;2022-10-16T12:15:20;26.67;;;25.75;;
20040;SDS011;10181;48.072;9.884;2022-10-16T12:17:46;58.50;;;55.97;;
20040;SDS011;10181;48.072;9.884;2022-10-16T12:22:41;20.92;;;20.08;;
20040;SDS011;10181;48.072;9.884;2022-10-16T12:27:56;20.83;;;20.08;;
20040;SDS011;10181;48.072;9.884;2022-10-16T12:30:28;33.63;;;32.42;;
20040;SDS011;10181;48.072;9.884;2022-10-16T12:32:56;20.02;;;19.35;;
20040;SDS011;10181;48.072;9.884;2022-10-16T12:35:26;24.05;;;22.98;;
20040;SDS011;10181;48.072;9.884;2022-10-16T12:38:03;23.77;;;22.70;;
20040;SDS011;10181;48.072;9.884;2022-10-16T12:40:38;7.03;;;6.70;;
20040;SDS011;10181;48.072;9.884;2022-10-16T12:43:46;8.85;;;8.15;;
20040;SDS011;10181;48.072;9.884;2022-10-16T12:46:06;6.30;;;5.88;;
20040;SDS011;10181;48.072;9.884;2022-10-16T12:51:38;6.85;;;6.63;;
20040;SDS011;10181;48.072;9.884;2022-10-16T12:54:12;16.48;;;15.85;;
20040;SDS011;10181;48.072;9.884;2022-10-16T13:10:15;12.30;;;12.00;;
20040;SDS011;10181;48.072;9.884;2022-10-16T13:13:03;9.77;;;9.52;;
20040;SDS011;10181;48.072;9.884;2022-10-16T13:15:46;46.22;;;44.53;;
20040;SDS011;10181;48.072;9.884;2022-10-16T13:18:35;15.45;;;15.00;;
20040;SDS011;10181;48.072;9.884;2022-10-16T13:24:11;14.00;;;13.48;;
20040;SDS011;10181;48.072;9.884;2022-10-16T13:29:04;20.13;;;19.35;;
20040;SDS011;10181;48.072;9.884;2022-10-16T13:31:29;11.45;;;10.98;;
20040;SDS011;10181;48.072;9.884;2022-10-16T13:33:57;29.63;;;28.58;;
20040;SDS011;10181;48.072;9.884;2022-10-16T13:41:36;27.50;;;26.58;;
20040;SDS011;10181;48.072;9.884;2022-10-16T13:44:02;43.13;;;41.58;;
20040;SDS011;10181;48.072;9.884;2022-10-16T13:46:28;14.13;;;13.73;;
20040;SDS011;10181;48.072;9.884;2022-10-16T13:49:03;36.35;;;34.97;;
20040;SDS011;10181;48.072;9.884;2022-10-16T13:51:30;39.70;;;38.22;;
20040;SDS011;10181;48.072;9.884;2022-10-16T13:53:57;10.02;;;9.82;;
20040;SDS011;10181;48.072;9.884;2022-10-16T13:56:27;28.63;;;27.67;;
20040;SDS011;10181;48.072;9.884;2022-10-16T13:59:01;39.67;;;38.08;;
20040;SDS011;10181;48.072;9.884;2022-10-16T14:01:50;34.65;;;33.45;;
20040;SDS011;10181;48.072;9.884;2022-10-16T14:04:16;27.35;;;26.45;;
20040;SDS011;10181;48.072;9.884;2022-10-16T14:06:43;30.20;;;29.17;;
20040;SDS011;10181;48.072;9.884;2022-10-16T14:11:56;24.65;;;23.85;;
20040;SDS011;10181;48.072;9.884;2022-10-16T14:14:27;9.35;;;9.15;;
20040;SDS011;10181;48.072;9.884;2022-10-16T14:20:12;27.08;;;26.17;;
20040;SDS011;10181;48.072;9.884;2022-10-16T14:22:41;23.92;;;23.13;;
20040;SDS011;10181;48.072;9.884;2022-10-16T14:27:46;15.35;;;14.88;;
20040;SDS011;10181;48.072;9.884;2022-10-16T14:30:25;26.13;;;24.77;;
20040;SDS011;10181;48.072;9.884;2022-10-16T14:32:59;9.20;;;8.93;;
20040;SDS011;10181;48.072;9.884;2022-10-16T14:35:31;9.20;;;8.95;;
20040;SDS011;10181;48.072;9.884;2022-10-16T14:38:01;7.30;;;7.10;;
20040;SDS011;10181;48.072;9.884;2022-10-16T14:40:32;7.55;;;7.32;;
20040;SDS011;10181;48.072;9.884;2022-10-16T14:43:01;8.27;;;8.07;;
20040;SDS011;10181;48.072;9.884;2022-10-16T14:45:29;8.10;;;7.90;;
20040;SDS011;10181;48.072;9.884;2022-10-16T14:47:58;7.07;;;6.88;;
20040;SDS011;10181;48.072;9.884;2022-10-16T14:50:41;8.55;;;8.25;;
20040;SDS011;10181;48.072;9.884;2022-10-16T14:53:11;7.20;;;7.00;;
20040;SDS011;10181;48.072;9.884;2022-10-16T14:55:37;7.03;;;6.82;;
20040;SDS011;10181;48.072;9.884;2022-10-16T14:58:04;6.80;;;6.60;;
20040;SDS011;10181;48.072;9.884;2022-10-16T15:00:30;6.68;;;6.47;;
20040;SDS011;10181;48.072;9.884;2022-10-16T15:02:55;6.68;;;6.47;;
20040;SDS011;10181;48.072;9.884;2022-10-16T15:05:25;6.20;;;6.05;;
20040;SDS011;10181;48.072;9.884;2022-10-16T15:07:52;7.45;;;7.25;;
20040;SDS011;10181;48.072;9.884;2022-10-16T15:10:20;5.93;;;5.82;;
20040;SDS011;10181;48.072;9.884;2022-10-16T15:12:47;5.80;;;5.65;;
20040;SDS011;10181;48.072;9.884;2022-10-16T15:17:52;4.55;;;4.45;;
20040;SDS011;10181;48.072;9.884;2022-10-16T15:20:21;4.85;;;4.75;;
20040;SDS011;10181;48.072;9.884;2022-10-16T15:22:46;4.35;;;4.25;;
20040;SDS011;10181;48.072;9.884;2022-10-16T15:28:02;4.90;;;4.80;;
20040;SDS011;10181;48.072;9.884;2022-10-16T15:30:29;4.78;;;4.68;;
20040;SDS011;10181;48.072;9.884;2022-10-16T15:32:55;4.72;;;4.63;;
20040;SDS011;10181;48.072;9.884;2022-10-16T15:35:21;5.63;;;5.43;;
20040;SDS011;10181;48.072;9.884;2022-10-16T15:37:47;5.35;;;5.25;;
20040;SDS011;10181;48.072;9.884;2022-10-16T15:40:13;5.65;;;5.55;;
20040;SDS011;10181;48.072;9.884;2022-10-16T15:42:40;7.50;;;7.30;;
20040;SDS011;10181;48.072;9.884;2022-10-16T15:45:05;7.60;;;7.40;;
20040;SDS011;10181;48.072;9.884;2022-10-16T15:47:31;8.50;;;8.30;;
20040;SDS011;10181;48.072;9.884;2022-10-16T15:49:57;8.63;;;8.43;;
20040;SDS011;10181;48.072;9.884;2022-10-16T15:52:23;7.80;;;7.60;;
20040;SDS011;10181;48.072;9.884;2022-10-16T15:54:48;7.65;;;7.45;;
20040;SDS011;10181;48.072;9.884;2022-10-16T15:57:14;8.13;;;7.93;;
20040;SDS011;10181;48.072;9.884;2022-10-16T15:59:40;11.10;;;10.82;;
20040;SDS011;10181;48.072;9.884;2022-10-16T16:02:05;18.70;;;18.13;;
20040;SDS011;10181;48.072;9.884;2022-10-16T16:04:33;43.42;;;41.80;;
20040;SDS011;10181;48.072;9.884;2022-10-16T16:06:58;47.45;;;45.75;;
20040;SDS011;10181;48.072;9.884;2022-10-16T16:09:24;47.63;;;45.90;;
20040;SDS011;10181;48.072;9.884;2022-10-16T16:11:49;48.20;;;46.35;;
20040;SDS011;10181;48.072;9.884;2022-10-16T16:14:17;47.97;;;46.20;;
20040;SDS011;10181;48.072;9.884;2022-10-16T16:16:42;42.63;;;41.10;;
20040;SDS011;10181;48.072;9.884;2022-10-16T16:19:08;33.30;;;32.15;;
20040;SDS011;10181;48.072;9.884;2022-10-16T16:21:34;31.10;;;29.85;;
20040;SDS011;10181;48.072;9.884;2022-10-16T16:24:00;24.95;;;24.08;;
20040;SDS011;10181;48.072;9.884;2022-10-16T16:28:53;19.33;;;18.58;;
20040;SDS011;10181;48.072;9.884;2022-10-16T16:31:20;14.77;;;14.13;;
20040;SDS011;10181;48.072;9.884;2022-10-16T16:33:49;13.52;;;13.05;;
20040;SDS011;10181;48.072;9.884;2022-10-16T16:36:16;10.30;;;9.90;;
20040;SDS011;10181;48.072;9.884;2022-10-16T16:38:43;9.80;;;9.47;;
20040;SDS011;10181;48.072;9.884;2022-10-16T16:41:12;8.00;;;7.70;;
20040;SDS011;10181;48.072;9.884;2022-10-16T16:43:39;7.47;;;7.27;;
20040;SDS011;10181;48.072;9.884;2022-10-16T16:46:05;6.30;;;6.10;;
20040;SDS011;10181;48.072;9.884;2022-10-16T16:48:31;4.80;;;4.60;;
20040;SDS011;10181;48.072;9.884;2022-10-16T16:51:31;4.10;;;3.93;;
20040;SDS011;10181;48.072;9.884;2022-10-16T16:53:50;5.17;;;4.70;;
20040;SDS011;10181;48.072;9.884;2022-10-16T16:56:17;6.17;;;5.97;;
20040;SDS011;10181;48.072;9.884;2022-10-16T16:58:45;4.83;;;4.63;;